Skip to main content

NOAA/GLERL Met Station at Chicago, IL

Previous 3 Hours (2 minute increments)
See also Previous 5 Days (top of hour)
Jump down to Data
Switch to [English][Metric]
Zoom: Click and drag, Pan: shift-click and drag, Unzoom: double-click, Unzoom All




See also 1-day windrose plot


NOAA/GLERL Met Station at Chicago, IL

Previous 3 Hours (2 minute increments)
See also Previous 5 Days (top of hour only)
Jump up to Graphs
Switch to [English][Metric]
                  Wind  Wind  Wind   Air   Dew   Rel
                   Spd   Gst   Dir  Temp    Pt   Hum
YYYY-MM-DD   CDT   kts   kts   deg     F     F     %
2020-04-08 16:06   9.3  10.1    33  43.0  43.0 100.2
2020-04-08 16:04   9.1  10.3    32  43.0  43.0 100.2
2020-04-08 16:02   8.9   9.9    30  43.0  43.1 100.3
2020-04-08 16:00   9.5  10.5    27  42.8  42.9 100.2
2020-04-08 15:58  10.1  11.3    31  42.8  42.9 100.2
2020-04-08 15:56   9.7  11.1    25  42.6  42.7 100.2
2020-04-08 15:54  10.7  11.7    20  42.4  42.5 100.2
2020-04-08 15:52  11.7  12.8    15  42.4  42.5 100.2
2020-04-08 15:50  12.2  13.0    12  42.6  42.7 100.2
2020-04-08 15:48  10.9  12.6    11  42.6  42.7 100.2
2020-04-08 15:46   9.5  10.7     8  42.6  42.7 100.3
2020-04-08 15:44   8.6   9.3     6  42.8  42.9 100.2
2020-04-08 15:42   8.4   9.5     2  42.8  42.9 100.2
2020-04-08 15:40   7.8   8.6     3  42.8  42.9 100.2
2020-04-08 15:38   8.0   8.6     7  42.8  42.9 100.3
2020-04-08 15:36   8.0   9.1     3  42.8  42.9 100.2
2020-04-08 15:34   7.6   8.4     9  42.8  42.9 100.2
2020-04-08 15:32   7.8   8.4    10  42.8  42.9 100.2
2020-04-08 15:30   7.6   8.4     7  42.8  42.9 100.2
2020-04-08 15:28   7.2   7.8     3  42.8  42.9 100.2
2020-04-08 15:26   7.0   8.2     7  42.8  42.9 100.2
2020-04-08 15:24   7.6   8.4     5  42.8  42.9 100.2
2020-04-08 15:22   7.0   8.2    12  42.8  42.9 100.2
2020-04-08 15:20   7.6   8.0    24  43.0  43.0 100.2
2020-04-08 15:18   7.6   8.6    27  43.0  43.1 100.3
2020-04-08 15:16   8.2   9.1    22  43.0  43.0 100.2
2020-04-08 15:14   7.2   8.4    29  43.0  43.0 100.2
2020-04-08 15:12   6.6   7.2    33  43.0  43.0 100.2
2020-04-08 15:10   5.8   7.0    41  43.0  43.0 100.2
2020-04-08 15:08   5.6   6.8    40  43.0  43.1 100.3
2020-04-08 15:06   6.4   7.0    33  43.0  43.0 100.2
2020-04-08 15:04   6.4   6.8    27  43.0  43.0 100.2
2020-04-08 15:02   6.2   7.0    30  43.0  43.0 100.2
2020-04-08 15:00   5.6   6.4    23  43.2  43.2 100.2
2020-04-08 14:58   4.7   5.6    27  43.2  43.2 100.2
2020-04-08 14:56   4.7   5.4    22  43.2  43.2 100.2
2020-04-08 14:54   5.1   5.4    21  43.2  43.2 100.2
2020-04-08 14:52   5.6   6.8    22  43.2  43.2 100.3
2020-04-08 14:50   6.4   7.0    23  43.2  43.2 100.3
2020-04-08 14:48   6.2   6.8    27  43.3  43.4 100.3
2020-04-08 14:46   6.4   7.0    25  43.3  43.4 100.2
2020-04-08 14:44   6.6   7.2    27  43.3  43.4 100.2
2020-04-08 14:42   6.4   7.2    34  43.3  43.4 100.2
2020-04-08 14:40   6.4   7.2    39  43.3  43.4 100.2
2020-04-08 14:38   5.6   6.6    43  43.5  43.6 100.2
2020-04-08 14:36   5.4   6.2    46  43.5  43.6 100.2
2020-04-08 14:34   5.4   6.4    49  43.5  43.6 100.2
2020-04-08 14:32   5.2   6.2    50  43.5  43.6 100.2
2020-04-08 14:30   5.8   6.4    39  43.5  43.6 100.2
2020-04-08 14:28   6.0   6.4    35  43.7  43.8 100.2
2020-04-08 14:26   4.9   5.8    39  43.9  43.9 100.2
2020-04-08 14:24   4.5   5.2    55  43.9  43.9 100.2
2020-04-08 14:22   4.3   5.1    60  43.9  43.9 100.2
2020-04-08 14:20   5.1   5.8    67  43.9  43.9 100.2
2020-04-08 14:18   5.6   6.2    66  43.9  43.9 100.2
2020-04-08 14:16   5.4   6.0    75  43.7  43.8 100.2
2020-04-08 14:14   5.4   6.0    83  43.7  43.8 100.2
2020-04-08 14:12   5.6   6.0    79  43.7  43.8 100.2
2020-04-08 14:10   5.4   6.0    80  43.7  43.8 100.2
2020-04-08 14:08   5.4   6.0    82  43.7  43.8 100.2
2020-04-08 14:06   5.2   6.0    83  43.7  43.8 100.2
2020-04-08 14:04   4.9   5.4    84  43.7  43.8 100.2
2020-04-08 14:02   5.4   6.2    83  43.7  43.8 100.2
2020-04-08 14:00   5.2   5.8    81  43.7  43.8 100.2
2020-04-08 13:58   5.1   5.6    82  43.7  43.8 100.2
2020-04-08 13:56   5.2   5.6    86  43.7  43.8 100.2
2020-04-08 13:54   5.4   6.0    87  43.9  43.9 100.2
2020-04-08 13:52   5.6   6.2    80  43.9  43.9 100.2
2020-04-08 13:50   5.6   6.2    83  44.1  44.1 100.2
2020-04-08 13:48   5.6   6.6    81  44.1  44.1 100.2
2020-04-08 13:46   5.8   6.0    83  43.9  43.9 100.2
2020-04-08 13:44   5.8   6.4    87  43.9  43.9 100.2
2020-04-08 13:42   5.2   6.0    83  44.1  44.1 100.2
2020-04-08 13:40   5.2   5.6    81  43.9  43.9 100.2
2020-04-08 13:38   5.6   6.4    85  44.1  44.1 100.2
2020-04-08 13:36   5.4   6.0    85  44.1  44.1 100.2
2020-04-08 13:34   5.4   6.0    82  44.1  44.1 100.2
2020-04-08 13:32   5.2   5.6    84  44.1  44.1 100.2
2020-04-08 13:30   5.1   5.4    84  44.1  44.1 100.2
2020-04-08 13:28   4.5   5.1    87  44.2  44.3 100.2
2020-04-08 13:26   3.3   3.7    88  44.4  44.5 100.2
2020-04-08 13:24   2.9   4.1    96  44.8  44.8 100.2
2020-04-08 13:22   2.7   3.1   109  45.1  45.2 100.2
2020-04-08 13:20   2.7   3.5   113  45.3  45.4 100.2
2020-04-08 13:18   2.3   2.9   116  45.3  45.4 100.2
2020-04-08 13:16   3.1   3.5   120  45.1  45.2 100.2
2020-04-08 13:14   3.3   3.7   117  45.0  45.0 100.2
2020-04-08 13:12   3.5   4.1   116  44.6  44.7 100.2
2020-04-08 13:10   3.3   4.5   108  44.4  44.5 100.2
2020-04-08 13:08   3.3   4.1   108  44.4  44.5 100.2
2020-04-08 13:06   3.9   4.7   110  44.4  44.5 100.2